createdAt,value
2019-05-11T15:13:33.181Z,412.00
2019-05-11T15:14:33.186Z,424.00
2019-05-11T15:16:27.901Z,424.00
2019-05-11T15:17:28.145Z,416.00
2019-05-11T15:19:19.493Z,392.00
2019-05-11T15:20:19.506Z,380.00
2019-05-11T15:22:12.684Z,356.00
2019-05-11T15:23:12.699Z,352.00
2019-05-11T15:25:07.932Z,344.00
2019-05-11T15:26:07.877Z,336.00
2019-05-11T15:27:08.033Z,340.00
2019-05-11T15:28:05.925Z,348.00
2019-05-11T15:29:08.204Z,352.00
2019-05-11T15:30:07.875Z,344.00
2019-05-11T15:31:07.978Z,328.00
2019-05-11T15:32:08.336Z,308.00
2019-05-11T15:33:07.699Z,296.00
2019-05-11T15:34:08.282Z,296.00
2019-05-11T15:35:07.971Z,300.00
2019-05-11T15:36:07.632Z,320.00
2019-05-11T15:37:07.943Z,328.00
2019-05-11T15:38:08.518Z,340.00
2019-05-11T15:39:07.763Z,336.00
2019-05-11T15:40:08.061Z,324.00
2019-05-11T15:41:08.257Z,308.00
2019-05-11T15:42:11.719Z,280.00
2019-05-11T15:43:08.555Z,260.00
2019-05-11T15:44:11.360Z,240.00
2019-05-11T15:45:07.945Z,220.00
2019-05-11T15:46:06.382Z,208.00
2019-05-11T15:47:07.777Z,196.00
2019-05-11T15:48:08.410Z,192.00
2019-05-11T15:49:08.727Z,188.00
2019-05-11T15:50:08.340Z,188.00
2019-05-11T15:51:08.031Z,188.00
2019-05-11T15:52:08.193Z,192.00
2019-05-11T15:53:08.591Z,192.00
2019-05-11T15:54:07.940Z,192.00
2019-05-11T15:55:08.075Z,192.00
2019-05-11T15:56:08.612Z,188.00
2019-05-11T15:57:08.387Z,180.00
2019-05-11T15:58:06.673Z,172.00
2019-05-11T15:59:08.746Z,172.00
2019-05-11T16:00:08.832Z,168.00
2019-05-11T16:01:07.955Z,168.00
2019-05-11T16:02:08.582Z,168.00
2019-05-11T16:03:08.171Z,168.00
2019-05-11T16:04:09.025Z,176.00
2019-05-11T16:05:08.584Z,180.00
2019-05-11T16:06:07.929Z,188.00
2019-05-11T16:07:08.248Z,188.00
2019-05-11T16:08:08.340Z,184.00
2019-05-11T16:09:08.328Z,184.00
2019-05-11T16:10:08.089Z,180.00
2019-05-11T16:11:08.363Z,172.00
2019-05-11T16:12:07.069Z,168.00
2019-05-11T16:13:09.134Z,156.00
2019-05-11T16:14:08.658Z,148.00
2019-05-11T16:15:08.678Z,140.00
2019-05-11T16:16:07.116Z,136.00
2019-05-11T16:17:08.764Z,132.00
2019-05-11T16:18:08.391Z,132.00
2019-05-11T16:19:14.449Z,124.00
2019-05-11T16:20:08.745Z,124.00
2019-05-11T16:21:07.631Z,128.00
2019-05-11T16:22:09.885Z,124.00
2019-05-11T16:23:07.295Z,132.00
2019-05-11T16:24:07.922Z,140.00
2019-05-11T16:25:08.606Z,144.00
2019-05-11T16:26:08.508Z,152.00
2019-05-11T16:27:08.766Z,160.00
2019-05-11T16:28:07.792Z,168.00
2019-05-11T16:29:11.055Z,168.00
2019-05-11T16:30:07.464Z,168.00
2019-05-11T16:31:09.260Z,164.00
2019-05-11T16:32:08.360Z,156.00
2019-05-11T16:33:08.701Z,144.00
2019-05-11T16:34:08.026Z,144.00
2019-05-11T16:35:08.791Z,136.00
2019-05-11T16:36:09.121Z,132.00
2019-05-11T16:37:09.955Z,132.00
2019-05-11T16:38:10.535Z,136.00
2019-05-11T16:39:10.011Z,140.00
2019-05-11T16:40:07.718Z,144.00
2019-05-11T16:41:09.210Z,152.00
2019-05-11T16:42:08.486Z,164.00
2019-05-11T16:43:08.527Z,180.00
2019-05-11T16:44:08.088Z,196.00
2019-05-11T16:45:08.488Z,208.00
2019-05-11T16:46:08.646Z,224.00
2019-05-11T16:47:08.023Z,232.00
2019-05-11T16:48:08.125Z,224.00
2019-05-11T16:49:10.761Z,216.00
2019-05-11T16:50:08.386Z,204.00
2019-05-11T16:51:08.665Z,180.00
2019-05-11T16:52:10.157Z,152.00
2019-05-11T16:53:08.034Z,132.00
2019-05-11T16:54:08.067Z,124.00
2019-05-11T16:55:08.096Z,136.00
2019-05-11T16:56:08.557Z,160.00
2019-05-11T16:57:08.645Z,184.00
2019-05-11T16:58:08.374Z,196.00
2019-05-11T16:59:08.430Z,200.00
2019-05-11T17:00:08.794Z,200.00
2019-05-11T17:01:08.754Z,188.00
2019-05-11T17:02:08.505Z,176.00
2019-05-11T17:03:08.286Z,172.00
2019-05-11T17:04:08.306Z,176.00
2019-05-11T17:05:08.328Z,172.00
2019-05-11T17:06:08.576Z,164.00
2019-05-11T17:07:08.386Z,148.00
2019-05-11T17:08:08.408Z,136.00
2019-05-11T17:09:09.006Z,124.00
2019-05-11T17:10:08.611Z,120.00
2019-05-11T17:11:08.483Z,124.00
2019-05-11T17:12:08.714Z,124.00
2019-05-11T17:13:08.739Z,128.00
2019-05-11T17:14:08.567Z,132.00
2019-05-11T17:15:08.890Z,128.00
2019-05-11T17:16:08.917Z,132.00
2019-05-11T17:17:08.624Z,132.00
2019-05-11T17:18:08.653Z,128.00
2019-05-11T17:19:08.683Z,128.00
2019-05-11T17:20:08.702Z,120.00
2019-05-11T17:21:08.732Z,116.00
2019-05-11T17:22:08.758Z,108.00
2019-05-11T17:23:08.779Z,104.00
2019-05-11T17:24:08.800Z,96.00
2019-05-11T17:25:08.833Z,96.00
2019-05-11T17:26:09.023Z,100.00
2019-05-11T17:27:08.999Z,104.00
2019-05-11T17:28:10.059Z,112.00
2019-05-11T17:29:10.045Z,120.00
2019-05-11T17:30:08.944Z,120.00
2019-05-11T17:31:08.973Z,120.00
2019-05-11T17:32:08.995Z,108.00
2019-05-11T17:33:09.029Z,96.00
2019-05-11T17:34:09.220Z,88.00
2019-05-11T17:35:09.072Z,80.00
2019-05-11T17:36:09.105Z,80.00
2019-05-11T17:37:09.117Z,80.00
2019-05-11T17:38:09.158Z,84.00
2019-05-11T17:39:09.174Z,80.00
2019-05-11T17:40:09.198Z,76.00
2019-05-11T17:41:09.227Z,72.00
2019-05-11T17:42:09.264Z,68.00
2019-05-11T17:43:09.340Z,60.00
2019-05-11T17:44:09.289Z,48.00
2019-05-11T17:45:09.328Z,40.00
2019-05-11T17:46:09.343Z,36.00
2019-05-11T17:47:09.372Z,32.00
2019-05-11T17:48:09.401Z,32.00
2019-05-11T17:49:09.427Z,32.00
2019-05-11T17:50:09.446Z,32.00
2019-05-11T17:51:20.556Z,32.00
2019-05-11T17:52:09.489Z,36.00
2019-05-11T17:53:09.517Z,40.00
2019-05-11T17:54:11.361Z,40.00
2019-05-11T17:55:09.565Z,44.00
2019-05-11T17:56:09.592Z,44.00
2019-05-11T17:57:09.687Z,48.00
2019-05-11T17:58:09.637Z,48.00
2019-05-11T17:59:09.666Z,40.00
2019-05-11T18:00:09.698Z,40.00
2019-05-11T18:01:09.716Z,36.00
2019-05-11T18:02:10.698Z,32.00
2019-05-11T18:03:11.319Z,28.00
2019-05-11T18:04:09.784Z,28.00
2019-05-11T18:05:09.827Z,20.00
2019-05-11T18:06:09.843Z,20.00
2019-05-11T18:07:23.324Z,16.00
2019-05-11T18:08:09.900Z,16.00
2019-05-11T18:09:09.915Z,16.00
2019-05-11T18:10:09.937Z,16.00
2019-05-11T18:11:09.975Z,12.00
2019-05-11T18:12:10.043Z,12.00
2019-05-11T18:13:10.008Z,12.00
2019-05-11T18:14:10.036Z,8.00
2019-05-11T18:15:10.065Z,8.00
2019-05-11T18:16:10.085Z,8.00
2019-05-11T18:17:10.200Z,8.00
2019-05-11T18:18:10.130Z,8.00
2019-05-11T18:19:10.164Z,4.00
2019-05-11T18:20:16.741Z,8.00
2019-05-11T18:21:10.208Z,4.00
2019-05-11T18:22:10.234Z,4.00
2019-05-11T18:23:10.263Z,8.00
2019-05-11T18:24:10.291Z,8.00
2019-05-11T18:25:10.299Z,8.00
2019-05-11T18:26:10.334Z,8.00
2019-05-11T18:27:10.355Z,4.00
2019-05-11T18:28:10.373Z,4.00
2019-05-11T18:29:10.410Z,4.00
2019-05-11T18:30:10.434Z,4.00
2019-05-11T18:31:10.529Z,4.00
2019-05-11T18:32:10.480Z,0.00
2019-05-11T18:33:10.504Z,4.00
2019-05-11T18:34:10.530Z,4.00
2019-05-11T18:35:10.557Z,4.00
2019-05-11T18:36:10.580Z,4.00
2019-05-11T18:37:10.599Z,4.00
2019-05-11T18:38:10.636Z,4.00
2019-05-11T18:39:10.649Z,4.00
2019-05-11T18:40:10.680Z,4.00
2019-05-11T18:41:10.700Z,4.00
2019-05-11T18:42:10.726Z,4.00
2019-05-11T18:43:10.758Z,4.00
2019-05-11T18:44:10.782Z,4.00
2019-05-11T18:45:10.794Z,4.00
2019-05-11T18:46:10.837Z,4.00
2019-05-11T18:47:10.847Z,4.00
2019-05-11T18:48:10.886Z,0.00
2019-05-11T18:49:10.906Z,0.00
2019-05-11T18:50:10.937Z,0.00
2019-05-11T18:51:10.963Z,0.00
2019-05-11T18:52:10.998Z,4.00
2019-05-11T18:53:10.992Z,0.00
2019-05-11T18:54:11.021Z,0.00
2019-05-11T18:55:11.062Z,0.00
2019-05-11T18:56:11.073Z,0.00
2019-05-11T18:57:11.092Z,0.00
2019-05-11T18:58:11.117Z,0.00
2019-05-11T18:59:11.143Z,0.00
2019-05-11T19:00:11.172Z,0.00
2019-05-11T19:01:11.193Z,0.00
2019-05-11T19:02:11.222Z,0.00
2019-05-11T19:03:11.407Z,0.00
2019-05-11T19:04:11.382Z,0.00
2019-05-11T19:05:11.300Z,0.00
2019-05-11T19:06:11.313Z,0.00
2019-05-11T19:07:16.416Z,0.00
2019-05-11T19:08:11.383Z,0.00
2019-05-11T19:09:11.400Z,0.00
2019-05-11T19:10:11.406Z,0.00
2019-05-11T19:11:11.445Z,0.00
2019-05-11T19:12:11.493Z,0.00
2019-05-11T19:13:11.490Z,0.00
2019-05-11T19:14:11.507Z,0.00
2019-05-11T19:15:11.537Z,0.00
2019-05-11T19:16:11.567Z,0.00
2019-05-11T19:17:11.585Z,0.00
2019-05-11T19:18:11.614Z,0.00
2019-05-11T19:19:11.631Z,0.00
2019-05-11T19:20:11.661Z,0.00
2019-05-11T19:21:11.738Z,0.00
2019-05-11T19:22:11.784Z,0.00
2019-05-11T19:23:11.740Z,0.00
2019-05-11T19:24:11.768Z,0.00
2019-05-11T19:25:11.911Z,0.00
2019-05-11T19:26:11.810Z,0.00
2019-05-11T19:27:11.848Z,0.00
2019-05-11T19:28:11.856Z,0.00
2019-05-11T19:29:11.886Z,0.00
2019-05-11T19:30:11.909Z,0.00
2019-05-11T19:31:11.937Z,0.00
2019-05-11T19:32:11.953Z,0.00
2019-05-11T19:33:11.981Z,0.00
2019-05-11T19:34:12.005Z,0.00
2019-05-11T19:35:12.028Z,0.00
2019-05-11T19:36:12.049Z,0.00
2019-05-11T19:37:12.092Z,0.00
2019-05-11T19:38:12.098Z,0.00
2019-05-11T19:39:12.125Z,0.00
2019-05-11T19:40:12.166Z,0.00
2019-05-11T19:41:12.177Z,0.00
2019-05-11T19:42:12.196Z,0.00
2019-05-11T19:43:12.234Z,0.00
2019-05-11T19:44:12.246Z,0.00
2019-05-11T19:45:12.287Z,0.00
2019-05-11T19:46:12.297Z,0.00
2019-05-11T19:47:12.321Z,0.00
2019-05-11T19:48:12.343Z,0.00
2019-05-11T19:49:12.374Z,0.00
2019-05-11T19:50:12.389Z,0.00
2019-05-11T19:51:12.468Z,0.00
2019-05-11T19:52:12.441Z,0.00
2019-05-11T19:53:12.481Z,0.00
2019-05-11T19:54:12.490Z,0.00
2019-05-11T19:55:12.517Z,0.00
2019-05-11T19:56:12.535Z,0.00
2019-05-11T19:57:12.565Z,0.00
2019-05-11T19:58:12.595Z,0.00
2019-05-11T19:59:12.609Z,0.00
2019-05-11T20:00:12.638Z,0.00
2019-05-11T20:01:12.673Z,0.00
2019-05-11T20:02:12.688Z,0.00
2019-05-11T20:03:12.716Z,0.00
2019-05-11T20:04:12.751Z,0.00
2019-05-11T20:05:12.755Z,0.00
2019-05-11T20:06:12.792Z,0.00
2019-05-11T20:07:12.805Z,0.00
2019-05-11T20:08:12.828Z,0.00
2019-05-11T20:09:12.870Z,0.00
2019-05-11T20:10:12.880Z,0.00
2019-05-11T20:11:13.351Z,0.00
2019-05-11T20:12:12.937Z,0.00
2019-05-11T20:14:13.002Z,0.00
2019-05-11T20:15:13.019Z,0.00
2019-05-11T20:16:13.031Z,0.00
2019-05-11T20:17:13.067Z,0.00
2019-05-11T20:18:13.077Z,0.00
2019-05-11T20:19:14.177Z,0.00
2019-05-11T20:20:13.121Z,0.00
2019-05-11T20:21:18.855Z,0.00
2019-05-11T20:22:13.172Z,0.00
2019-05-11T20:23:13.219Z,0.00
2019-05-11T20:24:13.219Z,0.00
2019-05-11T20:25:13.249Z,0.00
2019-05-11T20:26:13.266Z,0.00
2019-05-11T20:27:13.334Z,0.00
2019-05-11T20:28:13.323Z,0.00
2019-05-11T20:29:13.359Z,0.00
2019-05-11T20:30:13.373Z,0.00
2019-05-11T20:31:13.391Z,0.00
2019-05-11T20:32:13.461Z,0.00
2019-05-11T20:33:13.492Z,0.00
2019-05-11T20:34:13.491Z,0.00
2019-05-11T20:35:13.584Z,0.00
2019-05-11T20:36:13.579Z,0.00
2019-05-11T20:37:13.692Z,0.00
2019-05-11T20:38:13.570Z,0.00
2019-05-11T20:39:13.606Z,0.00
2019-05-11T20:40:13.610Z,0.00
2019-05-11T20:41:13.644Z,0.00
2019-05-11T20:42:13.665Z,0.00
2019-05-11T20:43:13.685Z,0.00
2019-05-11T20:44:13.706Z,0.00
2019-05-11T20:45:13.728Z,0.00
2019-05-11T20:46:13.780Z,0.00
2019-05-11T20:47:13.776Z,0.00
2019-05-11T20:48:13.806Z,0.00
2019-05-11T20:49:13.825Z,0.00
2019-05-11T20:50:13.884Z,0.00
2019-05-11T20:51:13.897Z,0.00
2019-05-11T20:52:13.898Z,0.00
2019-05-11T20:53:13.934Z,0.00
2019-05-11T20:54:13.954Z,0.00
2019-05-11T20:55:13.976Z,0.00
2019-05-11T20:56:13.996Z,0.00
2019-05-11T20:57:14.023Z,0.00
2019-05-11T20:58:14.044Z,0.00
2019-05-11T20:59:14.068Z,0.00
2019-05-11T21:00:14.102Z,0.00
2019-05-11T21:01:14.120Z,0.00
2019-05-11T21:02:14.143Z,0.00
2019-05-11T21:03:14.176Z,0.00
2019-05-11T21:04:14.188Z,0.00
2019-05-11T21:05:14.222Z,0.00
2019-05-11T21:06:14.255Z,0.00
2019-05-11T21:07:14.262Z,0.00
2019-05-11T21:08:14.290Z,0.00
2019-05-11T21:09:14.327Z,0.00
2019-05-11T21:10:14.348Z,0.00
2019-05-11T21:11:14.362Z,0.00
2019-05-11T21:12:14.394Z,0.00
2019-05-11T21:13:14.413Z,0.00
2019-05-11T21:14:14.431Z,0.00
2019-05-11T21:15:14.456Z,0.00
2019-05-11T21:16:14.482Z,0.00
2019-05-11T21:17:14.507Z,0.00
2019-05-11T21:18:14.546Z,0.00
2019-05-11T21:19:14.556Z,0.00
2019-05-11T21:20:14.576Z,0.00
2019-05-11T21:21:14.618Z,0.00
2019-05-11T21:22:14.635Z,0.00
2019-05-11T21:23:14.650Z,0.00
2019-05-11T21:24:14.687Z,0.00
2019-05-11T21:25:14.703Z,0.00
2019-05-11T21:26:15.870Z,0.00
2019-05-11T21:27:14.769Z,0.00
2019-05-11T21:28:14.771Z,0.00
2019-05-11T21:29:14.806Z,0.00
2019-05-11T21:30:14.859Z,0.00
2019-05-11T21:31:14.854Z,0.00
2019-05-11T21:32:14.870Z,0.00
2019-05-11T21:33:14.893Z,0.00
2019-05-11T21:34:14.942Z,0.00
2019-05-11T21:35:14.951Z,0.00
2019-05-11T21:36:14.975Z,0.00
2019-05-11T21:37:14.988Z,0.00
2019-05-11T21:38:15.023Z,0.00
2019-05-11T21:39:15.060Z,0.00
2019-05-11T21:40:15.074Z,0.00
2019-05-11T21:41:15.086Z,0.00
2019-05-11T21:42:15.118Z,0.00
2019-05-11T21:43:15.146Z,0.00
2019-05-11T21:44:15.192Z,0.00
2019-05-11T21:45:15.182Z,0.00
2019-05-11T21:46:17.853Z,0.00
2019-05-11T21:47:15.233Z,0.00
2019-05-11T21:48:15.266Z,0.00
2019-05-11T21:49:15.285Z,0.00
2019-05-11T21:50:15.303Z,0.00
2019-05-11T21:51:15.343Z,0.00
2019-05-11T21:52:15.356Z,0.00
2019-05-11T21:53:15.380Z,0.00
2019-05-11T21:54:15.410Z,0.00
2019-05-11T21:55:15.426Z,0.00
2019-05-11T21:56:15.451Z,0.00
2019-05-11T21:57:15.499Z,0.00
2019-05-11T21:58:18.084Z,0.00
2019-05-11T21:59:15.523Z,0.00
2019-05-11T22:00:15.556Z,0.00
2019-05-11T22:01:15.576Z,0.00
2019-05-11T22:02:15.595Z,0.00
2019-05-11T22:03:15.624Z,0.00
2019-05-11T22:04:15.647Z,0.00
2019-05-11T22:05:20.336Z,0.00
2019-05-11T22:06:15.719Z,0.00
2019-05-11T22:07:15.755Z,0.00
2019-05-11T22:08:17.798Z,0.00
2019-05-11T22:09:15.785Z,0.00
2019-05-11T22:10:17.720Z,0.00
2019-05-11T22:11:17.822Z,0.00
2019-05-11T22:12:15.847Z,0.00
2019-05-11T22:13:17.754Z,0.00
2019-05-11T22:14:15.887Z,0.00
2019-05-11T22:15:15.924Z,0.00
2019-05-11T22:16:15.937Z,0.00
2019-05-11T22:17:18.101Z,0.00
2019-05-11T22:18:28.215Z,0.00
2019-05-11T22:19:17.810Z,0.00
2019-05-11T22:20:18.163Z,0.00
2019-05-11T22:21:18.609Z,0.00
2019-05-11T22:22:22.508Z,0.00
2019-05-11T22:23:17.638Z,0.00
2019-05-11T22:24:17.994Z,0.00
2019-05-11T22:25:18.368Z,0.00
2019-05-11T22:26:17.982Z,0.00
2019-05-11T22:27:18.379Z,0.00
2019-05-11T22:28:17.620Z,0.00
2019-05-11T22:29:18.186Z,0.00
2019-05-11T22:30:18.341Z,0.00
2019-05-11T22:31:18.296Z,0.00
2019-05-11T22:32:17.904Z,0.00
2019-05-11T22:33:17.703Z,0.00
2019-05-11T22:34:17.773Z,0.00
2019-05-11T22:35:18.369Z,0.00
2019-05-11T22:36:16.432Z,0.00
2019-05-11T22:37:16.448Z,0.00
2019-05-11T22:38:16.469Z,0.00
2019-05-11T22:39:20.591Z,0.00
2019-05-11T22:40:16.522Z,0.00
2019-05-11T22:41:18.058Z,0.00
2019-05-11T22:42:18.432Z,0.00
2019-05-11T22:43:18.146Z,0.00
2019-05-11T22:44:18.628Z,0.00
2019-05-11T22:45:18.646Z,0.00
2019-05-11T22:46:17.781Z,0.00
2019-05-11T22:47:17.866Z,0.00
2019-05-11T22:48:16.719Z,0.00
2019-05-11T22:49:17.767Z,0.00
2019-05-11T22:50:18.665Z,0.00
2019-05-11T22:51:18.336Z,0.00
2019-05-11T22:52:17.956Z,0.00
2019-05-11T22:53:18.809Z,0.00
2019-05-11T22:54:18.612Z,0.00
2019-05-11T22:55:18.850Z,0.00
2019-05-11T22:56:17.553Z,0.00
2019-05-11T22:57:16.955Z,0.00
2019-05-11T22:58:17.896Z,0.00
2019-05-11T22:59:18.486Z,0.00
2019-05-11T23:00:18.398Z,0.00
2019-05-11T23:01:17.893Z,0.00
2019-05-11T23:02:19.035Z,0.00
2019-05-11T23:03:18.890Z,0.00
2019-05-11T23:04:19.671Z,0.00
2019-05-11T23:05:17.124Z,0.00
2019-05-11T23:06:18.073Z,0.00
2019-05-11T23:07:18.525Z,0.00
2019-05-11T23:08:18.220Z,0.00
2019-05-11T23:09:18.462Z,0.00
2019-05-11T23:10:17.807Z,0.00
2019-05-11T23:11:17.932Z,0.00
2019-05-11T23:12:17.992Z,0.00
2019-05-11T23:13:18.714Z,0.00
2019-05-11T23:14:17.695Z,0.00
2019-05-11T23:15:17.378Z,0.00
2019-05-11T23:16:17.991Z,0.00
2019-05-11T23:17:18.378Z,0.00
2019-05-11T23:18:18.032Z,0.00
2019-05-11T23:19:18.242Z,0.00
2019-05-11T23:20:17.488Z,0.00
2019-05-11T23:21:17.518Z,0.00
2019-05-11T23:22:18.310Z,0.00
2019-05-11T23:23:17.905Z,0.00
2019-05-11T23:24:18.065Z,0.00
2019-05-11T23:25:18.485Z,0.00
2019-05-11T23:26:17.947Z,0.00
2019-05-11T23:27:18.096Z,0.00
2019-05-11T23:28:18.462Z,0.00
2019-05-11T23:29:17.708Z,0.00
2019-05-11T23:30:19.797Z,0.00
2019-05-11T23:31:17.801Z,0.00
2019-05-11T23:32:18.088Z,0.00
2019-05-11T23:33:18.424Z,0.00
2019-05-11T23:34:17.859Z,0.00
2019-05-11T23:35:18.913Z,0.00
2019-05-11T23:36:18.242Z,0.00
2019-05-11T23:37:18.386Z,0.00
2019-05-11T23:38:17.929Z,0.00
2019-05-11T23:39:18.024Z,0.00
2019-05-11T23:40:18.328Z,0.00
2019-05-11T23:41:24.515Z,0.00
2019-05-11T23:42:18.071Z,0.00
2019-05-11T23:44:18.124Z,0.00
2019-05-11T23:45:18.823Z,0.00
2019-05-11T23:46:18.121Z,0.00
2019-05-11T23:47:20.247Z,0.00
2019-05-11T23:48:18.165Z,0.00
2019-05-11T23:49:18.195Z,0.00
2019-05-11T23:50:18.854Z,0.00
2019-05-11T23:51:18.277Z,0.00
2019-05-11T23:52:18.268Z,0.00
2019-05-11T23:53:18.288Z,0.00
2019-05-11T23:54:18.649Z,0.00
2019-05-11T23:55:19.042Z,0.00
2019-05-11T23:56:18.409Z,0.00
2019-05-11T23:57:18.740Z,0.00
2019-05-11T23:58:19.367Z,0.00
2019-05-11T23:59:18.905Z,0.00
